createdAt,value
2023-04-24T00:02:30.367Z,2.20
2023-04-24T00:05:34.802Z,1.83
2023-04-24T00:08:38.697Z,1.77
2023-04-24T00:11:43.593Z,1.83
2023-04-24T00:14:47.217Z,1.80
2023-04-24T00:17:51.276Z,2.40
2023-04-24T00:20:55.027Z,2.50
2023-04-24T00:23:58.638Z,2.05
2023-04-24T00:27:02.586Z,2.30
2023-04-24T00:30:07.986Z,2.15
2023-04-24T00:33:11.356Z,2.45
2023-04-24T00:36:15.879Z,2.45
2023-04-24T00:39:22.979Z,1.60
2023-04-24T00:42:27.411Z,1.83
2023-04-24T00:45:32.818Z,2.88
2023-04-24T00:48:36.926Z,2.03
2023-04-24T00:51:42.162Z,2.13
2023-04-24T00:54:49.761Z,1.50
2023-04-24T00:57:53.044Z,1.60
2023-04-24T01:00:59.474Z,1.75
2023-04-24T01:04:03.415Z,2.22
2023-04-24T01:07:12.466Z,2.85
2023-04-24T01:10:16.758Z,1.45
2023-04-24T01:13:22.536Z,1.67
2023-04-24T01:16:27.068Z,5.88
2023-04-24T01:19:31.043Z,2.42
2023-04-24T01:22:36.351Z,1.60
2023-04-24T01:25:41.015Z,2.45
2023-04-24T01:28:44.764Z,2.30
2023-04-24T01:31:49.424Z,1.60
2023-04-24T01:34:53.526Z,1.88
2023-04-24T01:37:57.483Z,2.10
2023-04-24T01:41:01.539Z,1.83
2023-04-24T01:44:05.704Z,2.00
2023-04-24T01:47:09.613Z,1.60
2023-04-24T01:50:13.672Z,1.33
2023-04-24T01:53:17.492Z,1.80
2023-04-24T01:56:23.872Z,3.07
2023-04-24T01:59:29.554Z,2.57
2023-04-24T02:02:33.931Z,6.40
2023-04-24T02:05:37.232Z,2.85
2023-04-24T02:08:41.536Z,1.60
2023-04-24T02:11:45.112Z,1.63
2023-04-24T02:14:49.172Z,2.30
2023-04-24T02:17:52.479Z,2.58
2023-04-24T02:20:56.548Z,3.13
2023-04-24T02:24:00.376Z,1.38
2023-04-24T02:27:04.810Z,1.67
2023-04-24T02:30:09.764Z,1.90
2023-04-24T02:33:14.197Z,2.00
2023-04-24T02:36:17.587Z,1.85
2023-04-24T02:39:21.857Z,1.77
2023-04-24T02:42:25.159Z,1.80
2023-04-24T02:45:29.461Z,2.40
2023-04-24T02:48:33.233Z,2.00
2023-04-24T02:51:40.102Z,1.35
2023-04-24T02:54:43.822Z,2.38
2023-04-24T02:57:48.038Z,2.33
2023-04-24T03:00:56.140Z,1.20
2023-04-24T03:04:00.532Z,2.13
2023-04-24T03:07:03.719Z,3.08
2023-04-24T03:10:08.567Z,2.60
2023-04-24T03:13:11.643Z,2.30
2023-04-24T03:16:15.288Z,2.50
2023-04-24T03:19:18.673Z,1.80
2023-04-24T03:22:35.642Z,2.08
2023-04-24T03:25:44.366Z,2.20
2023-04-24T03:28:49.698Z,1.20
2023-04-24T03:31:54.152Z,1.50
2023-04-24T03:34:58.202Z,2.03
2023-04-24T03:38:02.055Z,2.25
2023-04-24T03:41:14.530Z,2.53
2023-04-24T03:44:25.483Z,2.53
2023-04-24T03:47:29.580Z,1.87
2023-04-24T03:50:36.300Z,1.75
2023-04-24T03:53:41.589Z,2.25
2023-04-24T03:56:47.618Z,3.75
2023-04-24T03:59:51.767Z,2.10
2023-04-24T04:02:55.716Z,2.87
2023-04-24T04:06:00.256Z,3.58
2023-04-24T04:09:05.186Z,1.63
2023-04-24T04:12:08.804Z,1.20
2023-04-24T04:15:15.125Z,2.07
2023-04-24T04:18:18.938Z,2.47
2023-04-24T04:21:23.355Z,1.95
2023-04-24T04:24:32.438Z,2.10
2023-04-24T04:27:37.141Z,1.55
2023-04-24T04:30:47.024Z,2.57
2023-04-24T04:33:51.160Z,2.10
2023-04-24T04:36:54.894Z,1.70
2023-04-24T04:40:17.559Z,1.40
2023-04-24T04:43:32.493Z,1.67
2023-04-24T04:46:39.075Z,2.10
2023-04-24T04:49:50.203Z,1.67
2023-04-24T04:52:58.300Z,1.63
2023-04-24T04:56:08.214Z,1.30
2023-04-24T04:59:16.810Z,2.25
2023-04-24T05:02:21.354Z,2.20
2023-04-24T05:05:25.438Z,2.27
2023-04-24T05:08:29.333Z,1.40
2023-04-24T05:11:33.115Z,2.30
2023-04-24T05:14:38.212Z,2.00
2023-04-24T05:17:43.322Z,2.47
2023-04-24T05:20:47.521Z,2.13
2023-04-24T05:23:52.071Z,2.97
2023-04-24T05:27:08.748Z,1.60
2023-04-24T05:30:16.572Z,1.40
2023-04-24T05:33:20.157Z,1.37
2023-04-24T05:36:24.321Z,1.70
2023-04-24T05:39:28.248Z,1.70
2023-04-24T05:42:32.218Z,2.22
2023-04-24T05:45:37.614Z,2.00
2023-04-24T05:48:41.718Z,1.63
2023-04-24T05:51:45.333Z,1.77
2023-04-24T05:54:49.641Z,1.38
2023-04-24T05:57:57.998Z,1.45
2023-04-24T06:01:03.658Z,2.15
2023-04-24T06:04:08.322Z,2.10
2023-04-24T06:07:15.432Z,2.37
2023-04-24T06:10:20.107Z,1.50
2023-04-24T06:13:23.951Z,1.63
2023-04-24T06:16:49.538Z,1.60
2023-04-24T06:20:10.117Z,1.67
2023-04-24T06:23:14.088Z,1.40
2023-04-24T06:26:18.448Z,1.77
2023-04-24T06:29:22.113Z,2.42
2023-04-24T06:32:27.537Z,2.55
2023-04-24T06:35:31.235Z,2.10
2023-04-24T06:38:35.934Z,1.60
2023-04-24T06:41:39.646Z,1.60
2023-04-24T06:44:46.952Z,1.60
2023-04-24T06:47:51.004Z,1.42
2023-04-24T06:50:55.369Z,2.00
2023-04-24T06:53:58.592Z,1.70
2023-04-24T06:57:05.423Z,2.60
2023-04-24T07:00:11.213Z,1.75
2023-04-24T07:03:15.664Z,1.13
2023-04-24T07:06:20.188Z,1.37
2023-04-24T07:09:25.554Z,1.97
2023-04-24T07:12:28.821Z,2.00
2023-04-24T07:15:34.400Z,1.77
2023-04-24T07:18:39.013Z,2.10
2023-04-24T07:21:42.867Z,1.27
2023-04-24T07:24:47.028Z,1.30
2023-04-24T07:27:51.027Z,1.67
2023-04-24T07:30:55.569Z,2.40
2023-04-24T07:34:00.122Z,1.90
2023-04-24T07:37:03.902Z,4.00
2023-04-24T07:40:08.672Z,2.90
2023-04-24T07:43:12.276Z,2.28
2023-04-24T07:46:16.615Z,1.80
2023-04-24T07:49:22.199Z,1.65
2023-04-24T07:52:26.429Z,1.67
2023-04-24T07:55:30.068Z,1.50
2023-04-24T07:58:33.169Z,3.15
2023-04-24T08:01:36.559Z,1.58
2023-04-24T08:04:40.721Z,1.70
2023-04-24T08:07:44.894Z,3.30
2023-04-24T08:10:48.869Z,2.43
2023-04-24T08:13:52.623Z,1.77
2023-04-24T08:16:58.027Z,2.03
2023-04-24T08:20:02.955Z,2.35
2023-04-24T08:23:06.669Z,1.50
2023-04-24T08:26:10.311Z,1.60
2023-04-24T08:29:13.996Z,1.75
2023-04-24T08:32:18.500Z,1.60
2023-04-24T08:35:22.094Z,2.00
2023-04-24T08:38:26.353Z,1.93
2023-04-24T08:41:30.094Z,1.33
2023-04-24T08:44:34.900Z,2.25
2023-04-24T08:47:40.684Z,2.40
2023-04-24T08:50:46.889Z,2.10
2023-04-24T08:53:51.207Z,1.50
2023-04-24T08:56:59.448Z,1.60
2023-04-24T09:00:04.799Z,1.30
2023-04-24T09:03:09.078Z,1.60
2023-04-24T09:06:13.435Z,1.73
2023-04-24T09:09:20.001Z,2.53
2023-04-24T09:12:24.349Z,1.47
2023-04-24T09:15:28.723Z,2.00
2023-04-24T09:18:32.994Z,1.80
2023-04-24T09:21:37.892Z,3.13
2023-04-24T09:24:41.925Z,1.80
2023-04-24T09:27:47.377Z,2.50
2023-04-24T09:31:06.386Z,3.03
2023-04-24T09:34:10.422Z,2.35
2023-04-24T09:37:30.910Z,2.00
2023-04-24T09:40:39.161Z,2.17
2023-04-24T09:43:45.454Z,2.60
2023-04-24T09:46:55.549Z,1.95
2023-04-24T09:50:00.552Z,2.40
2023-04-24T09:53:06.978Z,1.80
2023-04-24T09:56:12.000Z,1.57
2023-04-24T09:59:17.284Z,2.17
2023-04-24T10:02:22.410Z,1.80
2023-04-24T10:05:30.102Z,1.48
2023-04-24T10:08:37.899Z,2.00
2023-04-24T10:11:47.698Z,2.20
2023-04-24T10:14:52.334Z,2.73
2023-04-24T10:17:56.170Z,1.50
2023-04-24T10:21:02.051Z,1.73
2023-04-24T10:24:09.390Z,1.77
2023-04-24T10:27:17.086Z,2.50
2023-04-24T10:30:21.918Z,2.17
2023-04-24T10:33:25.672Z,3.30
2023-04-24T10:36:30.880Z,4.72
2023-04-24T10:39:35.123Z,3.15
2023-04-24T10:42:45.033Z,3.20
2023-04-24T10:46:06.069Z,2.23
2023-04-24T10:49:10.772Z,3.75
2023-04-24T10:52:16.502Z,2.30
2023-04-24T10:55:44.612Z,3.70
2023-04-24T10:58:57.024Z,3.17
2023-04-24T11:02:00.588Z,2.30
2023-04-24T11:05:05.882Z,2.00
2023-04-24T11:08:15.539Z,2.45
2023-04-24T11:11:22.408Z,2.50
2023-04-24T11:14:26.422Z,2.80
2023-04-24T11:17:34.908Z,3.17
2023-04-24T11:20:44.622Z,3.00
2023-04-24T11:23:48.554Z,3.92
2023-04-24T11:27:17.035Z,4.07
2023-04-24T11:30:22.195Z,4.27
2023-04-24T11:33:25.541Z,5.70
2023-04-24T11:36:28.955Z,5.50
2023-04-24T11:39:39.375Z,6.10
2023-04-24T11:42:46.590Z,6.60
2023-04-24T11:45:52.558Z,5.97
2023-04-24T11:48:56.303Z,5.20
2023-04-24T11:52:02.613Z,4.55
2023-04-24T11:55:06.054Z,7.65
2023-04-24T11:58:09.337Z,10.15
2023-04-24T12:01:12.966Z,12.47
2023-04-24T12:04:19.522Z,8.13
2023-04-24T12:07:24.829Z,6.25
2023-04-24T12:10:32.122Z,5.72
2023-04-24T12:13:36.391Z,6.28
2023-04-24T12:17:05.062Z,8.63
2023-04-24T12:20:10.304Z,6.00
2023-04-24T12:23:16.613Z,6.93
2023-04-24T12:26:22.699Z,5.55
2023-04-24T12:29:26.581Z,5.78
2023-04-24T12:32:30.015Z,12.37
2023-04-24T12:35:35.714Z,9.45
2023-04-24T12:38:42.324Z,26.35
2023-04-24T12:42:05.697Z,49.28
2023-04-24T12:45:09.960Z,51.72
2023-04-24T12:48:13.324Z,50.97
2023-04-24T12:51:16.680Z,44.03
2023-04-24T12:54:19.674Z,40.90
2023-04-24T12:57:24.214Z,35.88
2023-04-24T13:00:27.870Z,31.42
2023-04-24T13:03:31.937Z,29.97
2023-04-24T13:06:34.927Z,26.65
2023-04-24T13:09:39.056Z,27.05
2023-04-24T13:12:42.756Z,30.50
2023-04-24T13:15:45.982Z,38.70
2023-04-24T13:18:49.504Z,39.53
2023-04-24T13:21:53.048Z,39.08
2023-04-24T13:24:57.733Z,50.00
2023-04-24T13:28:01.703Z,50.15
2023-04-24T13:31:05.093Z,51.13
2023-04-24T13:34:08.840Z,41.33
2023-04-24T13:37:11.894Z,28.33
2023-04-24T13:40:16.014Z,24.50
2023-04-24T13:43:19.969Z,17.92
2023-04-24T13:46:23.719Z,15.25
2023-04-24T13:49:28.157Z,13.60
2023-04-24T13:52:32.091Z,11.38
2023-04-24T13:55:35.814Z,10.95
2023-04-24T13:58:40.384Z,11.38
2023-04-24T14:01:44.317Z,10.18
2023-04-24T14:04:48.892Z,10.70
2023-04-24T14:07:52.453Z,9.30
2023-04-24T14:10:55.790Z,8.88
2023-04-24T14:14:00.095Z,7.07
2023-04-24T14:17:03.045Z,7.32
2023-04-24T14:20:08.501Z,12.80
2023-04-24T14:23:12.306Z,5.78
2023-04-24T14:26:15.635Z,6.55
2023-04-24T14:29:19.315Z,4.35
2023-04-24T14:32:23.025Z,4.70
2023-04-24T14:35:26.322Z,4.30
2023-04-24T14:38:30.807Z,3.80
2023-04-24T14:41:35.317Z,6.50
2023-04-24T14:44:38.897Z,9.68
2023-04-24T14:47:42.935Z,7.45
2023-04-24T14:50:47.402Z,13.43
2023-04-24T14:53:51.213Z,13.85
2023-04-24T14:56:58.607Z,14.85
2023-04-24T15:00:02.292Z,16.73
2023-04-24T15:03:06.416Z,15.95
2023-04-24T15:06:10.394Z,13.67
2023-04-24T15:09:13.695Z,14.45
2023-04-24T15:12:17.322Z,15.23
2023-04-24T15:15:21.123Z,16.58
2023-04-24T15:18:25.197Z,16.27
2023-04-24T15:21:28.337Z,15.87
2023-04-24T15:24:32.298Z,16.25
2023-04-24T15:27:46.406Z,17.23
2023-04-24T15:30:50.314Z,21.55
2023-04-24T15:33:53.350Z,23.30
2023-04-24T15:36:57.110Z,24.13
2023-04-24T15:40:01.289Z,21.00
2023-04-24T15:43:05.293Z,18.90
2023-04-24T15:46:09.612Z,17.63
2023-04-24T15:49:13.734Z,15.55
2023-04-24T15:52:16.992Z,13.63
2023-04-24T15:55:21.098Z,13.07
2023-04-24T15:58:24.686Z,22.25
2023-04-24T16:01:28.330Z,60.60
2023-04-24T16:04:32.579Z,70.97
2023-04-24T16:07:37.050Z,62.60
2023-04-24T16:10:40.948Z,72.78
2023-04-24T16:13:44.831Z,70.97
2023-04-24T16:16:48.427Z,59.63
2023-04-24T16:19:52.441Z,55.40
2023-04-24T16:22:56.046Z,51.63
2023-04-24T16:26:00.120Z,50.60
2023-04-24T16:29:03.837Z,47.88
2023-04-24T16:32:07.994Z,58.08
2023-04-24T16:35:11.308Z,55.92
2023-04-24T16:38:15.294Z,56.28
2023-04-24T16:41:18.947Z,51.58
2023-04-24T16:44:22.984Z,49.53
2023-04-24T16:47:26.804Z,32.47
2023-04-24T16:50:30.931Z,27.23
2023-04-24T16:53:34.596Z,25.05
2023-04-24T16:56:38.042Z,23.95
2023-04-24T16:59:41.926Z,30.90
2023-04-24T17:02:49.487Z,34.20
2023-04-24T17:05:53.214Z,33.03
2023-04-24T17:08:56.936Z,34.30
2023-04-24T17:12:00.615Z,37.87
2023-04-24T17:15:04.727Z,38.80
2023-04-24T17:18:08.184Z,30.45
2023-04-24T17:21:12.348Z,26.90
2023-04-24T17:24:16.195Z,23.00
2023-04-24T17:27:20.184Z,18.77
2023-04-24T17:30:23.999Z,18.70
2023-04-24T17:33:28.957Z,18.48
2023-04-24T17:36:33.205Z,17.30
2023-04-24T17:39:36.933Z,16.67
2023-04-24T17:42:41.946Z,15.82
2023-04-24T17:45:49.740Z,15.45
2023-04-24T17:48:53.157Z,14.93
2023-04-24T17:51:56.790Z,13.45
2023-04-24T17:54:59.702Z,14.07
2023-04-24T17:58:06.430Z,16.15
2023-04-24T18:01:09.378Z,15.87
2023-04-24T18:04:12.887Z,13.88
2023-04-24T18:07:16.469Z,14.05
2023-04-24T18:10:20.434Z,12.45
2023-04-24T18:13:24.164Z,12.93
2023-04-24T18:16:28.105Z,13.25
2023-04-24T18:19:31.701Z,13.13
2023-04-24T18:22:35.724Z,13.45
2023-04-24T18:25:39.448Z,16.77
2023-04-24T18:28:44.075Z,11.30
2023-04-24T18:31:48.631Z,12.95
2023-04-24T18:34:52.625Z,13.32
2023-04-24T18:37:56.426Z,11.83
2023-04-24T18:41:00.463Z,11.93
2023-04-24T18:44:04.483Z,14.55
2023-04-24T18:47:09.130Z,18.55
2023-04-24T18:50:13.174Z,24.17
2023-04-24T18:53:19.144Z,32.00
2023-04-24T18:56:22.886Z,46.30
2023-04-24T18:59:28.198Z,21.80
2023-04-24T19:02:31.418Z,15.53
2023-04-24T19:05:35.689Z,13.65
2023-04-24T19:08:39.300Z,15.80
2023-04-24T19:11:44.372Z,13.90
2023-04-24T19:14:47.537Z,11.27
2023-04-24T19:17:52.522Z,11.85
2023-04-24T19:20:56.742Z,13.20
2023-04-24T19:24:00.735Z,16.50
2023-04-24T19:27:04.125Z,19.80
2023-04-24T19:30:08.715Z,17.15
2023-04-24T19:33:12.153Z,17.80
2023-04-24T19:36:18.658Z,10.13
2023-04-24T19:39:22.452Z,8.77
2023-04-24T19:42:42.053Z,7.03
2023-04-24T19:45:47.132Z,8.10
2023-04-24T19:48:51.378Z,9.38
2023-04-24T19:51:55.372Z,10.80
2023-04-24T19:55:00.649Z,20.17
2023-04-24T19:58:04.320Z,21.33
2023-04-24T20:01:08.608Z,21.85
2023-04-24T20:04:12.624Z,18.63
2023-04-24T20:07:16.683Z,17.85
2023-04-24T20:10:20.285Z,13.27
2023-04-24T20:13:25.323Z,12.50
2023-04-24T20:16:28.992Z,13.55
2023-04-24T20:19:34.411Z,14.00
2023-04-24T20:22:40.030Z,15.52
2023-04-24T20:25:44.383Z,17.35
2023-04-24T20:28:48.462Z,15.88
2023-04-24T20:31:52.939Z,15.23
2023-04-24T20:34:56.638Z,14.18
2023-04-24T20:38:02.530Z,12.07
2023-04-24T20:41:08.901Z,12.40
2023-04-24T20:44:12.776Z,11.83
2023-04-24T20:47:16.392Z,11.55
2023-04-24T20:50:19.755Z,11.25
2023-04-24T20:53:23.988Z,12.37
2023-04-24T20:56:27.535Z,10.77
2023-04-24T20:59:31.223Z,11.20
2023-04-24T21:02:35.450Z,13.13
2023-04-24T21:05:39.007Z,12.60
2023-04-24T21:08:42.872Z,15.13
2023-04-24T21:11:46.607Z,14.32
2023-04-24T21:14:51.415Z,16.80
2023-04-24T21:17:54.874Z,15.60
2023-04-24T21:20:58.954Z,16.33
2023-04-24T21:24:04.777Z,14.03
2023-04-24T21:27:09.086Z,12.90
2023-04-24T21:30:12.956Z,13.02
2023-04-24T21:33:16.500Z,12.60
2023-04-24T21:36:20.129Z,11.60
2023-04-24T21:39:23.426Z,13.70
2023-04-24T21:42:27.464Z,11.63
2023-04-24T21:45:31.141Z,15.03
2023-04-24T21:48:34.265Z,18.48
2023-04-24T21:51:37.833Z,18.50
2023-04-24T21:54:41.241Z,19.17
2023-04-24T21:57:45.236Z,20.95
2023-04-24T22:00:48.613Z,20.40
2023-04-24T22:03:52.899Z,22.33
2023-04-24T22:06:56.614Z,18.30
2023-04-24T22:10:00.656Z,18.00
2023-04-24T22:13:04.627Z,17.95
2023-04-24T22:16:10.894Z,19.47
2023-04-24T22:19:17.886Z,24.85
2023-04-24T22:22:22.166Z,34.20
2023-04-24T22:25:35.710Z,36.90
2023-04-24T22:28:43.347Z,37.45
2023-04-24T22:31:47.506Z,28.27
2023-04-24T22:34:51.642Z,23.80
2023-04-24T22:37:58.120Z,24.13
2023-04-24T22:41:02.259Z,24.25
2023-04-24T22:44:05.871Z,28.13
2023-04-24T22:47:09.920Z,25.75
2023-04-24T22:50:13.094Z,23.25
2023-04-24T22:53:16.505Z,24.67
2023-04-24T22:56:19.403Z,20.98
2023-04-24T22:59:24.025Z,22.73
2023-04-24T23:02:29.225Z,22.63
2023-04-24T23:05:32.476Z,23.65
2023-04-24T23:08:36.385Z,23.38
2023-04-24T23:11:39.357Z,22.00
2023-04-24T23:14:42.449Z,26.57
2023-04-24T23:17:45.570Z,26.70
2023-04-24T23:20:48.636Z,28.10
2023-04-24T23:23:53.391Z,27.17
2023-04-24T23:26:56.901Z,26.45
2023-04-24T23:30:00.854Z,23.20
2023-04-24T23:33:03.901Z,22.58
2023-04-24T23:36:07.564Z,25.77
2023-04-24T23:39:11.241Z,26.15
2023-04-24T23:42:14.080Z,24.63
2023-04-24T23:45:17.720Z,22.23
2023-04-24T23:48:21.019Z,19.20
2023-04-24T23:51:24.713Z,17.30
2023-04-24T23:54:28.160Z,23.08
2023-04-24T23:57:32.740Z,19.55
